createdAt,value
2023-03-31T00:00:36.389Z,1.52
2023-03-31T00:01:36.429Z,1.34
2023-03-31T00:02:36.523Z,1.23
2023-03-31T00:03:36.610Z,1.45
2023-03-31T00:04:36.595Z,1.07
2023-03-31T00:05:36.585Z,1.19
2023-03-31T00:06:36.624Z,1.20
2023-03-31T00:07:36.649Z,0.83
2023-03-31T00:08:36.703Z,1.37
2023-03-31T00:09:36.731Z,1.54
2023-03-31T00:10:36.786Z,1.09
2023-03-31T00:11:36.825Z,1.16
2023-03-31T00:12:36.845Z,1.66
2023-03-31T00:13:37.053Z,1.52
2023-03-31T00:14:36.936Z,1.43
2023-03-31T00:15:36.978Z,1.38
2023-03-31T00:16:37.121Z,1.57
2023-03-31T00:17:37.041Z,1.39
2023-03-31T00:18:37.049Z,1.31
2023-03-31T00:19:37.094Z,1.32
2023-03-31T00:20:37.138Z,1.43
2023-03-31T00:21:37.199Z,1.27
2023-03-31T00:22:37.226Z,1.72
2023-03-31T00:23:37.278Z,1.25
2023-03-31T00:24:37.329Z,1.43
2023-03-31T00:25:37.362Z,1.86
2023-03-31T00:26:37.414Z,1.38
2023-03-31T00:27:37.458Z,1.51
2023-03-31T00:28:37.488Z,1.23
2023-03-31T00:29:37.538Z,1.11
2023-03-31T00:30:37.577Z,1.42
2023-03-31T00:31:37.610Z,1.14
2023-03-31T00:32:37.728Z,1.20
2023-03-31T00:33:37.685Z,1.17
2023-03-31T00:34:37.724Z,1.62
2023-03-31T00:35:37.799Z,1.55
2023-03-31T00:36:37.805Z,1.19
2023-03-31T00:37:37.845Z,1.45
2023-03-31T00:38:37.875Z,0.98
2023-03-31T00:39:37.918Z,1.47
2023-03-31T00:40:37.950Z,1.19
2023-03-31T00:41:37.981Z,1.26
2023-03-31T00:42:38.016Z,1.27
2023-03-31T00:43:38.059Z,1.37
2023-03-31T00:44:38.113Z,1.29
2023-03-31T00:45:38.167Z,1.57
2023-03-31T00:46:38.191Z,1.28
2023-03-31T00:47:38.254Z,1.47
2023-03-31T00:48:38.278Z,1.57
2023-03-31T00:49:38.305Z,1.28
2023-03-31T00:50:38.349Z,1.23
2023-03-31T00:51:38.382Z,1.20
2023-03-31T00:52:38.440Z,1.14
2023-03-31T00:53:38.474Z,1.38
2023-03-31T00:54:38.493Z,1.07
2023-03-31T00:55:38.541Z,1.40
2023-03-31T00:56:38.563Z,1.22
2023-03-31T00:57:38.617Z,0.97
2023-03-31T00:58:38.640Z,1.11
2023-03-31T00:59:38.674Z,0.93
2023-03-31T01:00:38.708Z,1.31
2023-03-31T01:01:38.767Z,1.67
2023-03-31T01:02:38.777Z,1.04
2023-03-31T01:03:38.792Z,1.33
2023-03-31T01:04:38.764Z,1.29
2023-03-31T01:05:38.778Z,1.33
2023-03-31T01:06:38.768Z,1.19
2023-03-31T01:07:38.787Z,1.91
2023-03-31T01:08:38.788Z,1.35
2023-03-31T01:09:38.857Z,1.67
2023-03-31T01:10:38.827Z,1.57
2023-03-31T01:11:38.852Z,1.51
2023-03-31T01:12:38.888Z,1.57
2023-03-31T01:13:38.924Z,1.44
2023-03-31T01:14:38.938Z,1.07
2023-03-31T01:15:38.967Z,1.46
2023-03-31T01:16:39.051Z,1.39
2023-03-31T01:17:39.235Z,1.19
2023-03-31T01:18:39.021Z,1.25
2023-03-31T01:19:39.028Z,1.53
2023-03-31T01:20:39.045Z,1.25
2023-03-31T01:21:39.082Z,1.18
2023-03-31T01:22:39.103Z,1.22
2023-03-31T01:23:39.140Z,1.41
2023-03-31T01:24:39.159Z,0.89
2023-03-31T01:25:39.190Z,1.32
2023-03-31T01:26:39.192Z,1.26
2023-03-31T01:27:39.222Z,1.38
2023-03-31T01:28:39.248Z,1.35
2023-03-31T01:29:39.271Z,1.25
2023-03-31T01:30:39.292Z,1.44
2023-03-31T01:31:39.360Z,1.41
2023-03-31T01:32:39.395Z,1.64
2023-03-31T01:33:39.372Z,1.15
2023-03-31T01:34:39.400Z,1.16
2023-03-31T01:35:39.491Z,1.14
2023-03-31T01:36:39.459Z,1.24
2023-03-31T01:37:39.486Z,1.25
2023-03-31T01:38:39.518Z,1.36
2023-03-31T01:39:39.569Z,1.45
2023-03-31T01:40:39.597Z,1.06
2023-03-31T01:41:39.628Z,1.42
2023-03-31T01:42:39.663Z,1.32
2023-03-31T01:43:39.683Z,1.36
2023-03-31T01:44:39.717Z,1.48
2023-03-31T01:45:39.758Z,1.37
2023-03-31T01:46:39.818Z,1.50
2023-03-31T01:47:39.889Z,1.68
2023-03-31T01:48:39.872Z,1.32
2023-03-31T01:49:40.136Z,1.23
2023-03-31T01:50:39.964Z,1.32
2023-03-31T01:51:40.034Z,1.44
2023-03-31T01:52:40.038Z,1.16
2023-03-31T01:53:40.098Z,1.61
2023-03-31T01:54:40.112Z,1.36
2023-03-31T01:55:40.158Z,1.21
2023-03-31T01:56:40.199Z,1.16
2023-03-31T01:57:40.236Z,1.03
2023-03-31T01:58:40.270Z,1.17
2023-03-31T01:59:40.307Z,1.24
2023-03-31T02:00:40.348Z,1.38
2023-03-31T02:01:40.397Z,1.30
2023-03-31T02:02:40.536Z,1.13
2023-03-31T02:03:40.509Z,1.35
2023-03-31T02:04:40.480Z,1.20
2023-03-31T02:05:40.529Z,1.56
2023-03-31T02:06:40.560Z,1.39
2023-03-31T02:07:40.584Z,1.53
2023-03-31T02:08:40.619Z,1.20
2023-03-31T02:09:40.673Z,1.57
2023-03-31T02:10:40.702Z,1.45
2023-03-31T02:11:40.725Z,1.25
2023-03-31T02:12:40.768Z,1.13
2023-03-31T02:13:40.791Z,1.27
2023-03-31T02:14:40.835Z,1.25
2023-03-31T02:15:40.874Z,1.33
2023-03-31T02:16:40.940Z,1.46
2023-03-31T02:17:40.980Z,1.39
2023-03-31T02:18:40.969Z,1.02
2023-03-31T02:19:41.019Z,1.38
2023-03-31T02:20:41.050Z,1.83
2023-03-31T02:21:41.081Z,1.59
2023-03-31T02:22:41.115Z,1.40
2023-03-31T02:23:41.135Z,1.20
2023-03-31T02:24:41.173Z,0.93
2023-03-31T02:25:41.218Z,1.28
2023-03-31T02:26:41.238Z,1.06
2023-03-31T02:27:41.479Z,1.22
2023-03-31T02:28:41.298Z,1.76
2023-03-31T02:29:41.325Z,1.10
2023-03-31T02:30:41.365Z,1.58
2023-03-31T02:31:41.423Z,1.42
2023-03-31T02:32:41.475Z,1.14
2023-03-31T02:33:41.476Z,1.45
2023-03-31T02:34:41.512Z,1.13
2023-03-31T02:35:41.565Z,1.02
2023-03-31T02:36:41.574Z,1.15
2023-03-31T02:37:41.605Z,1.66
2023-03-31T02:38:41.638Z,1.15
2023-03-31T02:39:41.666Z,1.00
2023-03-31T02:40:41.703Z,1.31
2023-03-31T02:41:41.738Z,1.25
2023-03-31T02:42:41.764Z,1.07
2023-03-31T02:43:41.789Z,1.31
2023-03-31T02:44:41.811Z,1.24
2023-03-31T02:45:41.885Z,1.58
2023-03-31T02:46:41.881Z,1.59
2023-03-31T02:47:41.987Z,1.09
2023-03-31T02:48:41.944Z,1.14
2023-03-31T02:49:41.976Z,1.33
2023-03-31T02:50:42.027Z,1.22
2023-03-31T02:51:42.050Z,1.15
2023-03-31T02:52:42.105Z,0.96
2023-03-31T02:53:42.132Z,1.53
2023-03-31T02:54:42.167Z,1.32
2023-03-31T02:55:42.205Z,1.02
2023-03-31T02:56:42.281Z,1.43
2023-03-31T02:57:42.284Z,1.15
2023-03-31T02:58:42.327Z,1.41
2023-03-31T02:59:42.330Z,0.94
2023-03-31T03:00:42.363Z,1.02
2023-03-31T03:01:42.462Z,1.27
2023-03-31T03:02:42.515Z,1.04
2023-03-31T03:03:42.472Z,1.36
2023-03-31T03:04:42.506Z,1.45
2023-03-31T03:05:42.530Z,1.33
2023-03-31T03:06:42.585Z,1.83
2023-03-31T03:07:42.609Z,1.05
2023-03-31T03:08:42.652Z,1.06
2023-03-31T03:09:42.678Z,1.04
2023-03-31T03:10:42.724Z,1.05
2023-03-31T03:11:42.760Z,1.32
2023-03-31T03:12:42.780Z,1.45
2023-03-31T03:13:42.827Z,1.11
2023-03-31T03:14:42.856Z,1.48
2023-03-31T03:15:42.890Z,1.64
2023-03-31T03:16:43.018Z,1.08
2023-03-31T03:17:43.058Z,1.02
2023-03-31T03:18:43.006Z,1.44
2023-03-31T03:19:43.050Z,1.30
2023-03-31T03:20:43.083Z,1.44
2023-03-31T03:21:43.120Z,1.23
2023-03-31T03:22:43.160Z,1.53
2023-03-31T03:23:43.188Z,1.37
2023-03-31T03:24:43.223Z,1.20
2023-03-31T03:25:43.259Z,1.35
2023-03-31T03:26:43.287Z,1.33
2023-03-31T03:27:43.317Z,1.73
2023-03-31T03:28:43.363Z,1.14
2023-03-31T03:29:43.382Z,1.45
2023-03-31T03:30:43.445Z,1.14
2023-03-31T03:31:43.460Z,1.40
2023-03-31T03:32:43.568Z,1.30
2023-03-31T03:33:43.533Z,1.67
2023-03-31T03:34:43.563Z,1.35
2023-03-31T03:35:43.629Z,1.13
2023-03-31T03:36:43.641Z,1.29
2023-03-31T03:37:43.696Z,1.47
2023-03-31T03:38:43.734Z,1.50
2023-03-31T03:39:43.760Z,0.89
2023-03-31T03:40:43.809Z,0.95
2023-03-31T03:41:43.840Z,1.44
2023-03-31T03:42:43.864Z,1.31
2023-03-31T03:43:43.916Z,1.17
2023-03-31T03:44:43.945Z,1.29
2023-03-31T03:45:43.972Z,1.27
2023-03-31T03:46:44.112Z,1.36
2023-03-31T03:47:44.071Z,1.59
2023-03-31T03:48:44.079Z,1.37
2023-03-31T03:49:44.121Z,1.05
2023-03-31T03:50:44.145Z,1.61
2023-03-31T03:51:44.196Z,0.96
2023-03-31T03:52:44.226Z,1.17
2023-03-31T03:53:44.251Z,1.22
2023-03-31T03:54:44.285Z,1.49
2023-03-31T03:55:44.324Z,1.51
2023-03-31T03:56:44.377Z,1.07
2023-03-31T03:57:44.403Z,1.25
2023-03-31T03:58:44.422Z,1.38
2023-03-31T03:59:44.494Z,1.18
2023-03-31T04:00:44.516Z,1.24
2023-03-31T04:01:44.568Z,1.00
2023-03-31T04:02:44.763Z,1.23
2023-03-31T04:03:44.608Z,1.17
2023-03-31T04:04:44.677Z,1.59
2023-03-31T04:05:44.690Z,1.60
2023-03-31T04:06:44.730Z,1.16
2023-03-31T04:07:44.753Z,1.13
2023-03-31T04:08:44.792Z,1.27
2023-03-31T04:09:44.828Z,1.12
2023-03-31T04:10:44.869Z,1.42
2023-03-31T04:11:44.913Z,1.72
2023-03-31T04:12:44.945Z,1.45
2023-03-31T04:13:44.970Z,1.59
2023-03-31T04:14:45.021Z,1.03
2023-03-31T04:15:45.065Z,1.43
2023-03-31T04:16:45.541Z,1.62
2023-03-31T04:17:45.163Z,1.48
2023-03-31T04:18:45.150Z,1.19
2023-03-31T04:19:45.202Z,1.38
2023-03-31T04:20:45.231Z,1.55
2023-03-31T04:21:45.272Z,1.18
2023-03-31T04:22:45.309Z,1.32
2023-03-31T04:23:45.346Z,1.59
2023-03-31T04:24:45.380Z,0.98
2023-03-31T04:25:45.405Z,1.35
2023-03-31T04:26:45.465Z,1.11
2023-03-31T04:27:45.492Z,1.06
2023-03-31T04:28:45.539Z,1.34
2023-03-31T04:29:45.570Z,1.04
2023-03-31T04:30:45.629Z,1.36
2023-03-31T04:31:45.682Z,1.22
2023-03-31T04:32:45.727Z,1.17
2023-03-31T04:33:45.728Z,1.20
2023-03-31T04:34:45.767Z,1.36
2023-03-31T04:35:45.856Z,1.51
2023-03-31T04:36:45.841Z,1.25
2023-03-31T04:37:45.888Z,1.05
2023-03-31T04:38:45.918Z,1.26
2023-03-31T04:39:45.951Z,1.11
2023-03-31T04:40:45.990Z,1.41
2023-03-31T04:41:46.029Z,1.23
2023-03-31T04:42:46.072Z,1.11
2023-03-31T04:43:46.097Z,1.49
2023-03-31T04:44:46.142Z,1.21
2023-03-31T04:45:46.204Z,1.17
2023-03-31T04:46:46.192Z,1.19
2023-03-31T04:47:46.260Z,1.14
2023-03-31T04:48:46.287Z,1.54
2023-03-31T04:49:46.300Z,1.07
2023-03-31T04:50:46.348Z,1.07
2023-03-31T04:51:46.370Z,1.45
2023-03-31T04:52:46.404Z,1.10
2023-03-31T04:53:46.441Z,1.15
2023-03-31T04:54:46.459Z,1.26
2023-03-31T04:55:46.501Z,1.35
2023-03-31T04:56:46.563Z,1.28
2023-03-31T04:57:46.573Z,1.42
2023-03-31T04:58:46.594Z,1.27
2023-03-31T04:59:46.663Z,0.96
2023-03-31T05:00:46.667Z,1.41
2023-03-31T05:01:46.745Z,1.12
2023-03-31T05:02:46.811Z,1.46
2023-03-31T05:03:46.803Z,1.60
2023-03-31T05:04:46.802Z,1.30
2023-03-31T05:05:46.864Z,1.46
2023-03-31T05:06:46.882Z,1.23
2023-03-31T05:07:46.903Z,1.47
2023-03-31T05:08:46.935Z,1.21
2023-03-31T05:09:46.975Z,1.36
2023-03-31T05:10:47.001Z,1.49
2023-03-31T05:11:47.021Z,1.21
2023-03-31T05:12:47.061Z,1.40
2023-03-31T05:13:47.090Z,1.20
2023-03-31T05:14:47.117Z,1.15
2023-03-31T05:15:47.150Z,1.36
2023-03-31T05:16:47.217Z,0.88
2023-03-31T05:17:47.266Z,0.94
2023-03-31T05:18:47.252Z,1.34
2023-03-31T05:19:47.296Z,1.14
2023-03-31T05:20:47.317Z,1.40
2023-03-31T05:21:47.397Z,1.09
2023-03-31T05:22:47.380Z,1.25
2023-03-31T05:23:47.404Z,1.60
2023-03-31T05:24:47.437Z,1.36
2023-03-31T05:25:47.467Z,1.27
2023-03-31T05:26:47.502Z,1.73
2023-03-31T05:27:47.544Z,1.70
2023-03-31T05:28:47.533Z,1.09
2023-03-31T05:29:47.542Z,1.48
2023-03-31T05:30:47.553Z,1.80
2023-03-31T05:31:47.628Z,2.33
2023-03-31T05:32:47.670Z,1.72
2023-03-31T05:33:47.638Z,1.78
2023-03-31T05:34:47.737Z,1.77
2023-03-31T05:35:47.635Z,1.58
2023-03-31T05:36:47.647Z,1.51
2023-03-31T05:37:47.666Z,1.86
2023-03-31T05:38:47.716Z,1.52
2023-03-31T05:39:47.704Z,1.36
2023-03-31T05:40:47.706Z,1.49
2023-03-31T05:41:47.735Z,1.76
2023-03-31T05:42:47.753Z,1.43
2023-03-31T05:43:47.778Z,1.57
2023-03-31T05:44:47.797Z,1.79
2023-03-31T05:45:47.828Z,1.85
2023-03-31T05:46:47.868Z,1.87
2023-03-31T05:47:47.896Z,1.61
2023-03-31T05:48:47.893Z,1.52
2023-03-31T05:49:47.905Z,1.41
2023-03-31T05:50:47.925Z,1.51
2023-03-31T05:51:47.939Z,1.40
2023-03-31T05:52:47.977Z,1.42
2023-03-31T05:53:47.994Z,1.87
2023-03-31T05:54:48.007Z,1.66
2023-03-31T05:55:48.029Z,1.55
2023-03-31T05:56:48.076Z,1.63
2023-03-31T05:57:48.071Z,2.23
2023-03-31T05:58:48.075Z,1.60
2023-03-31T05:59:48.108Z,1.35
2023-03-31T06:00:48.131Z,1.68
2023-03-31T06:01:48.246Z,1.50
2023-03-31T06:02:48.246Z,1.48
2023-03-31T06:03:48.168Z,1.56
2023-03-31T06:04:48.190Z,1.39
2023-03-31T06:05:48.201Z,1.59
2023-03-31T06:06:48.222Z,1.56
2023-03-31T06:07:48.250Z,1.70
2023-03-31T06:08:48.282Z,1.57
2023-03-31T06:09:48.313Z,1.39
2023-03-31T06:10:48.412Z,1.63
2023-03-31T06:11:49.425Z,1.68
2023-03-31T06:12:48.350Z,1.64
2023-03-31T06:13:48.369Z,1.80
2023-03-31T06:14:48.431Z,1.48
2023-03-31T06:15:48.401Z,1.47
2023-03-31T06:16:48.412Z,1.51
2023-03-31T06:17:48.445Z,1.52
2023-03-31T06:18:48.459Z,1.69
2023-03-31T06:19:48.492Z,1.87
2023-03-31T06:20:48.437Z,1.54
2023-03-31T06:21:48.399Z,1.31
2023-03-31T06:22:48.370Z,1.48
2023-03-31T06:23:48.340Z,1.60
2023-03-31T06:24:48.295Z,2.02
2023-03-31T06:26:48.261Z,1.71
2023-03-31T06:27:48.217Z,1.84
2023-03-31T06:28:48.157Z,1.79
2023-03-31T06:29:48.968Z,1.47
2023-03-31T06:30:48.084Z,1.74
2023-03-31T06:31:48.085Z,1.73
2023-03-31T06:32:48.093Z,2.08
2023-03-31T06:33:47.991Z,1.62
2023-03-31T06:34:47.969Z,1.76
2023-03-31T06:35:47.965Z,1.83
2023-03-31T06:36:47.976Z,1.94
2023-03-31T06:37:47.987Z,1.70
2023-03-31T06:38:48.030Z,2.01
2023-03-31T06:39:47.995Z,1.84
2023-03-31T06:40:48.033Z,1.81
2023-03-31T06:41:48.019Z,1.42
2023-03-31T06:42:48.037Z,1.79
2023-03-31T06:43:48.033Z,1.96
2023-03-31T06:44:48.042Z,1.73
2023-03-31T06:45:48.068Z,1.66
2023-03-31T06:46:48.162Z,1.71
2023-03-31T06:47:48.196Z,1.47
2023-03-31T06:48:48.088Z,2.12
2023-03-31T06:49:48.083Z,1.71
2023-03-31T06:50:48.095Z,2.11
2023-03-31T06:51:48.100Z,1.93
2023-03-31T06:52:48.089Z,1.77
2023-03-31T06:53:48.106Z,1.66
2023-03-31T06:54:48.093Z,1.73
2023-03-31T06:55:48.092Z,1.97
2023-03-31T06:56:48.156Z,1.44
2023-03-31T06:57:48.087Z,1.72
2023-03-31T06:58:48.093Z,1.90
2023-03-31T06:59:48.079Z,1.81
2023-03-31T07:00:48.084Z,1.91
2023-03-31T07:01:48.088Z,1.65
2023-03-31T07:02:48.128Z,1.59
2023-03-31T07:03:48.137Z,2.10
2023-03-31T07:04:48.068Z,1.67
2023-03-31T07:05:48.064Z,1.67
2023-03-31T07:06:48.067Z,1.73
2023-03-31T07:07:48.096Z,1.32
2023-03-31T07:08:48.087Z,1.59
2023-03-31T07:09:48.081Z,1.84
2023-03-31T07:10:48.088Z,1.63
2023-03-31T07:11:48.091Z,1.59
2023-03-31T07:12:48.093Z,1.37
2023-03-31T07:13:48.102Z,1.74
2023-03-31T07:14:48.099Z,1.87
2023-03-31T07:15:48.141Z,1.42
2023-03-31T07:16:48.160Z,1.54
2023-03-31T07:17:48.150Z,1.37
2023-03-31T07:18:48.123Z,2.09
2023-03-31T07:19:48.178Z,1.81
2023-03-31T07:20:48.120Z,1.81
2023-03-31T07:21:48.122Z,1.64
2023-03-31T07:22:48.155Z,1.48
2023-03-31T07:23:48.135Z,1.44
2023-03-31T07:24:48.153Z,1.47
2023-03-31T07:25:48.144Z,1.53
2023-03-31T07:26:48.178Z,1.40
2023-03-31T07:27:48.142Z,1.53
2023-03-31T07:28:48.155Z,1.25
2023-03-31T07:29:48.150Z,1.54
2023-03-31T07:30:48.167Z,1.70
2023-03-31T07:31:48.222Z,1.87
2023-03-31T07:32:48.217Z,1.98
2023-03-31T07:33:48.174Z,1.47
2023-03-31T07:34:48.183Z,1.62
2023-03-31T07:35:54.006Z,1.91
2023-03-31T07:36:49.207Z,1.71
2023-03-31T07:37:48.124Z,1.64
2023-03-31T07:38:48.104Z,1.69
2023-03-31T07:39:48.075Z,1.89
2023-03-31T07:40:58.603Z,1.98
2023-03-31T07:41:48.972Z,1.26
2023-03-31T07:42:49.268Z,1.83
2023-03-31T07:43:47.912Z,2.08
2023-03-31T07:44:47.868Z,1.69
2023-03-31T07:45:47.857Z,1.53
2023-03-31T07:46:47.813Z,1.39
2023-03-31T07:47:47.794Z,1.96
2023-03-31T07:48:47.759Z,1.86
2023-03-31T07:49:47.725Z,1.45
2023-03-31T07:50:47.656Z,1.50
2023-03-31T07:51:47.609Z,1.85
2023-03-31T07:52:47.611Z,2.51
2023-03-31T07:53:47.553Z,1.93
2023-03-31T07:54:48.498Z,1.62
2023-03-31T07:55:47.495Z,1.73
2023-03-31T07:56:47.452Z,1.41
2023-03-31T07:57:47.465Z,1.68
2023-03-31T07:58:47.469Z,1.53
2023-03-31T07:59:47.477Z,1.51
2023-03-31T08:00:47.472Z,1.57
2023-03-31T08:01:47.550Z,2.00
2023-03-31T08:02:47.495Z,1.71
2023-03-31T08:03:47.501Z,1.75
2023-03-31T08:04:47.491Z,1.60
2023-03-31T08:05:47.746Z,1.75
2023-03-31T08:06:47.488Z,1.78
2023-03-31T08:07:47.472Z,2.20
2023-03-31T08:08:47.463Z,1.81
2023-03-31T08:09:48.094Z,2.28
2023-03-31T08:10:47.406Z,1.79
2023-03-31T08:11:48.145Z,1.85
2023-03-31T08:12:47.343Z,1.93
2023-03-31T08:13:47.346Z,1.74
2023-03-31T08:14:47.332Z,2.10
2023-03-31T08:15:47.443Z,2.22
2023-03-31T08:16:47.469Z,2.62
2023-03-31T08:17:47.446Z,2.78
2023-03-31T08:18:47.464Z,4.73
2023-03-31T08:19:47.457Z,3.17
2023-03-31T08:20:49.487Z,3.89
2023-03-31T08:21:47.458Z,3.38
2023-03-31T08:22:47.450Z,3.62
2023-03-31T08:23:47.427Z,3.63
2023-03-31T08:24:47.432Z,3.44
2023-03-31T08:25:47.471Z,3.74
2023-03-31T08:26:47.479Z,3.87
2023-03-31T08:27:48.503Z,3.43
2023-03-31T08:28:47.523Z,3.61
2023-03-31T08:29:58.366Z,3.75
2023-03-31T08:30:47.523Z,14.52
2023-03-31T08:31:47.540Z,39.52
2023-03-31T08:32:47.486Z,34.31
2023-03-31T08:33:47.401Z,33.94
2023-03-31T08:34:47.594Z,28.95
2023-03-31T08:35:47.363Z,23.98
2023-03-31T08:36:47.327Z,45.51
2023-03-31T08:37:47.282Z,38.93
2023-03-31T08:38:47.275Z,48.95
2023-03-31T08:39:47.217Z,39.43
2023-03-31T08:40:47.204Z,44.18
2023-03-31T08:41:47.184Z,44.03
2023-03-31T08:42:47.131Z,47.95
2023-03-31T08:43:47.101Z,47.71
2023-03-31T08:44:47.073Z,47.48
2023-03-31T08:45:47.092Z,46.45
2023-03-31T08:46:47.112Z,47.91
2023-03-31T08:47:47.202Z,46.52
2023-03-31T08:48:47.162Z,45.92
2023-03-31T08:49:47.185Z,46.13
2023-03-31T08:50:47.200Z,46.66
2023-03-31T08:51:47.202Z,44.42
2023-03-31T08:52:47.209Z,44.11
2023-03-31T08:53:47.211Z,45.77
2023-03-31T08:54:47.216Z,44.24
2023-03-31T08:55:47.183Z,42.64
2023-03-31T08:56:47.184Z,43.10
2023-03-31T08:57:47.145Z,46.65
2023-03-31T08:58:47.127Z,41.89
2023-03-31T08:59:48.070Z,41.47
2023-03-31T09:00:47.069Z,40.19
2023-03-31T09:01:55.419Z,41.88
2023-03-31T09:02:48.045Z,43.57
2023-03-31T09:03:47.058Z,40.72
2023-03-31T09:04:46.908Z,40.61
2023-03-31T09:05:59.399Z,39.85
2023-03-31T09:06:47.816Z,39.52
2023-03-31T09:07:46.792Z,40.90
2023-03-31T09:08:46.692Z,38.84
2023-03-31T09:09:46.668Z,39.00
2023-03-31T09:10:46.602Z,40.02
2023-03-31T09:11:46.542Z,39.37
2023-03-31T09:12:46.495Z,39.24
2023-03-31T09:13:46.451Z,39.77
2023-03-31T09:14:46.416Z,39.40
2023-03-31T09:15:46.348Z,39.25
2023-03-31T09:16:46.390Z,39.18
2023-03-31T09:17:46.292Z,36.79
2023-03-31T09:18:46.177Z,36.96
2023-03-31T09:19:46.134Z,36.53
2023-03-31T09:20:46.078Z,36.39
2023-03-31T09:21:46.036Z,35.03
2023-03-31T09:22:45.977Z,34.47
2023-03-31T09:23:45.926Z,33.80
2023-03-31T09:24:45.885Z,36.84
2023-03-31T09:25:46.609Z,35.58
2023-03-31T09:26:45.810Z,33.61
2023-03-31T09:27:46.600Z,34.45
2023-03-31T09:28:45.689Z,32.80
2023-03-31T09:29:45.638Z,34.03
2023-03-31T09:30:45.578Z,34.81
2023-03-31T09:31:46.086Z,33.14
2023-03-31T09:32:45.518Z,32.16
2023-03-31T09:33:45.458Z,33.58
2023-03-31T09:34:45.455Z,34.27
2023-03-31T09:35:46.682Z,32.37
2023-03-31T09:36:45.474Z,35.16
2023-03-31T09:37:45.497Z,31.38
2023-03-31T09:38:45.502Z,28.99
2023-03-31T09:39:45.525Z,33.05
2023-03-31T09:40:45.534Z,32.79
2023-03-31T09:41:45.568Z,32.82
2023-03-31T09:42:45.583Z,31.93
2023-03-31T09:43:45.617Z,32.95
2023-03-31T09:44:45.638Z,32.05
2023-03-31T09:45:57.676Z,31.37
2023-03-31T09:46:46.630Z,33.13
2023-03-31T09:47:45.584Z,30.59
2023-03-31T09:48:45.516Z,31.31
2023-03-31T09:49:53.951Z,33.54
2023-03-31T09:50:46.424Z,30.31
2023-03-31T09:51:45.386Z,28.96
2023-03-31T09:52:46.109Z,31.19
2023-03-31T09:53:45.317Z,30.44
2023-03-31T09:54:45.270Z,31.27
2023-03-31T09:55:45.222Z,29.94
2023-03-31T09:56:45.206Z,30.72
2023-03-31T09:57:45.125Z,31.45
2023-03-31T09:58:45.087Z,31.83
2023-03-31T09:59:45.045Z,30.16
2023-03-31T10:00:45.042Z,30.99
2023-03-31T10:01:45.056Z,30.34
2023-03-31T10:02:44.985Z,31.45
2023-03-31T10:03:44.918Z,28.00
2023-03-31T10:04:44.909Z,31.18
2023-03-31T10:05:44.964Z,29.54
2023-03-31T10:06:45.011Z,29.63
2023-03-31T10:07:45.072Z,28.80
2023-03-31T10:08:45.050Z,30.47
2023-03-31T10:09:45.022Z,29.05
2023-03-31T10:10:45.034Z,30.53
2023-03-31T10:11:44.968Z,27.87
2023-03-31T10:12:44.932Z,30.04
2023-03-31T10:13:44.921Z,28.10
2023-03-31T10:14:44.994Z,28.10
2023-03-31T10:15:45.057Z,29.28
2023-03-31T10:16:45.020Z,28.32
2023-03-31T10:17:54.763Z,27.67
2023-03-31T10:18:45.977Z,27.79
2023-03-31T10:19:44.940Z,27.06
2023-03-31T10:20:44.923Z,24.38
2023-03-31T10:21:44.902Z,22.56
2023-03-31T10:22:44.825Z,21.13
2023-03-31T10:23:44.793Z,22.06
2023-03-31T10:24:44.787Z,16.88
2023-03-31T10:25:44.712Z,20.59
2023-03-31T10:26:44.713Z,17.93
2023-03-31T10:27:44.733Z,17.72
2023-03-31T10:28:44.760Z,16.95
2023-03-31T10:29:44.776Z,17.33
2023-03-31T10:30:44.793Z,16.62
2023-03-31T10:31:44.850Z,16.23
2023-03-31T10:32:44.911Z,14.33
2023-03-31T10:33:44.932Z,16.12
2023-03-31T10:34:44.873Z,15.85
2023-03-31T10:35:44.928Z,17.65
2023-03-31T10:36:44.924Z,16.20
2023-03-31T10:37:44.942Z,14.13
2023-03-31T10:38:44.968Z,15.05
2023-03-31T10:39:44.990Z,13.67
2023-03-31T10:40:45.018Z,13.21
2023-03-31T10:41:45.003Z,14.01
2023-03-31T10:42:45.011Z,14.57
2023-03-31T10:43:45.023Z,14.15
2023-03-31T10:44:45.033Z,14.38
2023-03-31T10:45:45.025Z,13.38
2023-03-31T10:46:45.030Z,13.60
2023-03-31T10:47:44.995Z,14.14
2023-03-31T10:48:44.952Z,14.84
2023-03-31T10:49:44.924Z,12.87
2023-03-31T10:50:44.902Z,13.95
2023-03-31T10:51:44.868Z,13.58
2023-03-31T10:52:44.808Z,14.18
2023-03-31T10:53:44.777Z,15.09
2023-03-31T10:54:44.710Z,14.51
2023-03-31T10:55:44.675Z,13.56
2023-03-31T10:56:44.737Z,12.98
2023-03-31T10:57:44.606Z,12.75
2023-03-31T10:58:52.092Z,13.14
2023-03-31T10:59:45.484Z,13.07
2023-03-31T11:00:44.381Z,14.39
2023-03-31T11:01:44.417Z,13.18
2023-03-31T11:02:44.327Z,14.61
2023-03-31T11:03:44.241Z,11.43
2023-03-31T11:04:44.160Z,9.66
2023-03-31T11:05:44.165Z,9.21
2023-03-31T11:06:44.045Z,8.61
2023-03-31T11:07:44.010Z,8.52
2023-03-31T11:08:43.963Z,8.96
2023-03-31T11:09:43.950Z,10.20
2023-03-31T11:10:43.888Z,9.30
2023-03-31T11:11:43.812Z,9.45
2023-03-31T11:12:43.789Z,9.39
2023-03-31T11:13:43.851Z,10.47
2023-03-31T11:14:43.829Z,10.62
2023-03-31T11:15:43.887Z,10.45
2023-03-31T11:16:43.950Z,9.99
2023-03-31T11:17:43.910Z,9.84
2023-03-31T11:18:43.918Z,10.21
2023-03-31T11:19:43.947Z,10.70
2023-03-31T11:20:43.968Z,9.98
2023-03-31T11:21:43.978Z,10.86
2023-03-31T11:22:44.061Z,10.17
2023-03-31T11:23:44.050Z,10.14
2023-03-31T11:24:44.079Z,10.07
2023-03-31T11:25:44.074Z,10.45
2023-03-31T11:26:44.082Z,10.48
2023-03-31T11:27:44.059Z,10.08
2023-03-31T11:28:44.052Z,10.46
2023-03-31T11:29:44.083Z,9.44
2023-03-31T11:30:44.110Z,10.85
2023-03-31T11:31:44.240Z,10.76
2023-03-31T11:32:44.222Z,9.74
2023-03-31T11:33:44.242Z,10.25
2023-03-31T11:34:44.276Z,10.02
2023-03-31T11:35:44.387Z,8.77
2023-03-31T11:36:44.376Z,9.65
2023-03-31T11:37:44.414Z,10.23
2023-03-31T11:38:44.483Z,9.34
2023-03-31T11:39:44.516Z,9.76
2023-03-31T11:40:44.477Z,10.79
2023-03-31T11:41:44.468Z,10.62
2023-03-31T11:42:44.420Z,9.57
2023-03-31T11:43:44.382Z,9.64
2023-03-31T11:44:44.370Z,9.74
2023-03-31T11:45:44.396Z,9.44
2023-03-31T11:46:44.497Z,9.72
2023-03-31T11:47:44.428Z,9.05
2023-03-31T11:48:44.380Z,9.94
2023-03-31T11:49:44.371Z,9.72
2023-03-31T11:50:44.322Z,10.16
2023-03-31T11:51:44.297Z,9.08
2023-03-31T11:52:44.315Z,9.56
2023-03-31T11:53:44.363Z,9.01
2023-03-31T11:54:44.449Z,8.88
2023-03-31T11:55:44.395Z,8.86
2023-03-31T11:56:44.458Z,8.78
2023-03-31T11:57:44.337Z,8.75
2023-03-31T11:58:44.305Z,10.12
2023-03-31T11:59:44.281Z,9.69
2023-03-31T12:00:44.335Z,8.79
2023-03-31T12:01:44.399Z,8.52
2023-03-31T12:02:44.545Z,9.37
2023-03-31T12:03:44.535Z,8.79
2023-03-31T12:04:44.421Z,9.69
2023-03-31T12:05:44.455Z,9.38
2023-03-31T12:06:44.355Z,8.55
2023-03-31T12:07:44.381Z,8.62
2023-03-31T12:08:44.419Z,8.33
2023-03-31T12:09:44.389Z,8.77
2023-03-31T12:10:44.369Z,8.85
2023-03-31T12:11:44.334Z,8.46
2023-03-31T12:12:44.324Z,8.09
2023-03-31T12:13:44.382Z,8.48
2023-03-31T12:14:44.339Z,8.65
2023-03-31T12:15:44.357Z,10.33
2023-03-31T12:16:44.308Z,8.75
2023-03-31T12:17:44.275Z,8.70
2023-03-31T12:18:44.232Z,9.43
2023-03-31T12:19:44.276Z,9.05
2023-03-31T12:20:44.252Z,8.75
2023-03-31T12:21:44.218Z,8.85
2023-03-31T12:22:44.199Z,8.74
2023-03-31T12:23:44.192Z,9.10
2023-03-31T12:24:44.235Z,8.60
2023-03-31T12:25:44.310Z,9.47
2023-03-31T12:26:44.278Z,8.69
2023-03-31T12:27:44.273Z,8.39
2023-03-31T12:28:44.232Z,8.37
2023-03-31T12:29:44.205Z,9.32
2023-03-31T12:30:44.228Z,7.78
2023-03-31T12:31:44.225Z,8.40
2023-03-31T12:32:44.173Z,8.16
2023-03-31T12:33:44.114Z,8.91
2023-03-31T12:34:44.106Z,8.55
2023-03-31T12:35:44.137Z,8.15
2023-03-31T12:36:44.160Z,8.98
2023-03-31T12:37:44.138Z,7.65
2023-03-31T12:38:44.114Z,8.82
2023-03-31T12:39:44.100Z,9.80
2023-03-31T12:40:44.076Z,9.43
2023-03-31T12:41:44.074Z,8.42
2023-03-31T12:42:44.114Z,9.09
2023-03-31T12:43:44.193Z,8.09
2023-03-31T12:44:44.157Z,8.98
2023-03-31T12:45:44.136Z,7.88
2023-03-31T12:46:44.189Z,8.00
2023-03-31T12:47:44.119Z,8.09
2023-03-31T12:48:44.092Z,8.29
2023-03-31T12:49:44.076Z,8.42
2023-03-31T12:50:44.055Z,8.15
2023-03-31T12:51:44.047Z,7.30
2023-03-31T12:52:44.034Z,7.09
2023-03-31T12:53:44.012Z,8.19
2023-03-31T12:54:44.033Z,7.97
2023-03-31T12:55:43.997Z,8.12
2023-03-31T12:56:44.052Z,7.99
2023-03-31T12:57:43.961Z,8.25
2023-03-31T12:58:43.954Z,7.47
2023-03-31T12:59:43.931Z,8.20
2023-03-31T13:00:43.952Z,7.94
2023-03-31T13:01:43.912Z,7.48
2023-03-31T13:02:43.979Z,8.19
2023-03-31T13:03:43.885Z,7.79
2023-03-31T13:04:43.895Z,8.06
2023-03-31T13:05:43.865Z,7.49
2023-03-31T13:06:43.851Z,7.68
2023-03-31T13:07:43.843Z,9.06
2023-03-31T13:08:43.821Z,7.97
2023-03-31T13:09:43.809Z,7.50
2023-03-31T13:10:43.895Z,7.97
2023-03-31T13:11:43.771Z,7.85
2023-03-31T13:12:43.752Z,7.20
2023-03-31T13:13:58.129Z,7.99